Durham — WDF3868 — position and weather

sailwx.info

Track history (hours):
 
Tides and Currents Weather Stations Pressure Air Temp Water Temp Dewpoint Dewpoint Depression Visibility Wind Speed Wind Dir Waves Ship Positions

Durham

Owner: KEN'S BOOMING & BOAT SERVICE, INC., BAYONNE, NJ. More information available from US FCC via Universal Licensing System and Coast Guard Vessel Documentation Center.

Last reported at 2015-Aug-24 20:18 UTC. Time now 2015-Aug-31 13:17 UTC.
Position N 40°44' W 074°07'.

MMSI: 367444950.

Date/timePositionNaut miles runAvg speedWind from/ knotsBaromVisibWave heightAir tempDewpointWater temp
2015-Aug-24 20:18N 40°44' W 074°07'0 0.0
2015-Aug-24 19:27N 40°44' W 074°07'0 0.0
2015-Aug-24 18:34N 40°44' W 074°07'2 2.3
2015-Aug-24 17:33N 40°42' W 074°08'2 2.1
2015-Aug-24 16:30N 40°44' W 074°07'3 3.3
2015-Aug-24 15:33N 40°41' W 074°08'3 3.1
2015-Aug-24 14:34N 40°40' W 074°04'6 5.8
2015-Aug-24 13:33N 40°43' W 073°58'5 4.9
2015-Aug-24 12:29N 40°47' W 073°53'  
Track history (hours):
 
Tides and Currents Weather Stations Pressure Air Temp Water Temp Dewpoint Dewpoint Depression Visibility Wind Speed Wind Dir Waves Ship Positions

Durham

Owner: KEN'S BOOMING & BOAT SERVICE, INC., BAYONNE, NJ. More information available from US FCC via Universal Licensing System and Coast Guard Vessel Documentation Center.

Last reported at 2015-Aug-24 20:18 UTC. Time now 2015-Aug-31 13:17 UTC.
Position N 40°44' W 074°07'.

MMSI: 367444950.

Date/timePositionNaut miles runAvg speedWind from/ knotsBaromVisibWave heightAir tempDewpointWater temp
2015-Aug-24 20:18N 40°44' W 074°07'0 0.0
2015-Aug-24 19:27N 40°44' W 074°07'0 0.0
2015-Aug-24 18:34N 40°44' W 074°07'2 2.3
2015-Aug-24 17:33N 40°42' W 074°08'2 2.1
2015-Aug-24 16:30N 40°44' W 074°07'3 3.3
2015-Aug-24 15:33N 40°41' W 074°08'3 3.1
2015-Aug-24 14:34N 40°40' W 074°04'6 5.8
2015-Aug-24 13:33N 40°43' W 073°58'5 4.9
2015-Aug-24 12:29N 40°47' W 073°53'  

Dump ship's entire track history